Time;durP1;ratioP1;P1;durP2;ratioP2;P2;SDS_P1;SDS_P2;PMS_P1;PMS_P2;Temp;Humidity;BMP_temperature;BMP_pressure;BME280_temperature;BME280_humidity;BME280_pressure;Samples;Min_cycle;Max_cycle;Signal;HPM_P1;HPM_P2
2021/12/19 00:00:34;;;;;;;12.50;3.40;;;9.80;88.20;;;;;;5009043;28;20599;-65
2021/12/19 00:10:57;;;;;;;11.60;3.22;;;9.70;89.00;;;;;;5018826;28;20457;-66
2021/12/19 00:13:25;;;;;;;9.07;3.53;;;9.70;89.20;;;;;;5012900;28;20125;-65
2021/12/19 00:15:51;;;;;;;6.80;4.03;;;9.60;88.30;;;;;;5007055;28;20069;-67
2021/12/19 00:18:17;;;;;;;7.00;3.10;;;9.60;88.50;;;;;;5008786;28;20137;-65
2021/12/19 00:20:43;;;;;;;6.40;3.10;;;9.60;88.20;;;;;;5008748;28;20116;-65
2021/12/19 00:23:10;;;;;;;10.70;3.85;;;9.60;88.30;;;;;;5014068;28;20319;-65
2021/12/19 00:25:36;;;;;;;9.07;3.42;;;9.60;87.80;;;;;;5016718;28;20108;-65
2021/12/19 00:28:01;;;;;;;12.65;4.30;;;9.60;87.40;;;;;;5013298;28;20781;-67
2021/12/19 00:30:27;;;;;;;12.43;4.80;;;9.50;87.60;;;;;;5016034;28;20049;-67
2021/12/19 00:32:53;;;;;;;8.73;3.78;;;9.40;88.40;;;;;;5004277;28;20155;-64
2021/12/19 00:35:19;;;;;;;7.93;3.63;;;9.50;88.40;;;;;;5011240;28;20033;-65
2021/12/19 00:37:45;;;;;;;9.45;5.88;;;9.50;88.00;;;;;;5016763;28;20083;-65
2021/12/19 00:40:11;;;;;;;12.25;4.70;;;9.50;87.80;;;;;;5014653;28;20037;-65
2021/12/19 00:42:37;;;;;;;8.90;3.60;;;9.50;88.20;;;;;;5005802;28;20037;-65
2021/12/19 00:45:24;;;;;;;7.20;3.78;;;9.50;89.30;;;;;;5014865;28;20042;-65
2021/12/19 00:47:49;;;;;;;10.80;3.83;;;9.50;88.60;;;;;;5005322;28;20061;-65
2021/12/19 00:50:15;;;;;;;10.00;4.55;;;9.50;88.70;;;;;;5021124;28;20512;-65
2021/12/19 00:52:42;;;;;;;7.68;4.45;;;9.60;88.60;;;;;;5016205;28;20120;-65
2021/12/19 00:55:08;;;;;;;8.60;3.78;;;9.60;88.70;;;;;;5010278;28;20065;-65
2021/12/19 00:57:34;;;;;;;10.10;4.40;;;9.60;88.50;;;;;;5016926;28;20037;-65
2021/12/19 01:00:00;;;;;;;19.52;8.82;;;9.70;88.70;;;;;;5006130;28;20056;-65
2021/12/19 01:02:26;;;;;;;10.80;5.10;;;9.60;88.80;;;;;;5004899;28;20736;-65
2021/12/19 01:04:51;;;;;;;8.13;3.53;;;9.60;88.70;;;;;;5014642;28;20330;-65
2021/12/19 01:07:17;;;;;;;8.27;2.60;;;9.60;88.90;;;;;;5019043;28;20065;-65
2021/12/19 01:09:43;;;;;;;10.20;2.33;;;9.60;88.20;;;;;;5010109;28;20104;-65
2021/12/19 01:12:11;;;;;;;7.03;2.47;;;9.60;88.50;;;;;;5010884;28;20099;-65
2021/12/19 01:14:38;;;;;;;6.25;2.80;;;9.60;88.60;;;;;;5002815;28;20034;-65
2021/12/19 01:17:05;;;;;;;5.20;2.25;;;9.60;88.30;;;;;;5011897;28;20018;-65
2021/12/19 01:19:31;;;;;;;3.42;1.80;;;9.50;88.60;;;;;;5015632;28;20539;-65
2021/12/19 01:21:57;;;;;;;7.70;2.00;;;9.50;88.90;;;;;;5008485;28;20030;-65
2021/12/19 01:24:22;;;;;;;5.30;1.80;;;9.50;88.60;;;;;;5013719;28;20037;-65
2021/12/19 01:26:48;;;;;;;4.18;1.88;;;9.50;88.60;;;;;;5004113;28;20026;-66
2021/12/19 01:29:14;;;;;;;4.05;1.65;;;9.50;88.30;;;;;;5005421;28;20049;-67
2021/12/19 01:31:41;;;;;;;9.02;3.22;;;9.60;88.40;;;;;;5014523;28;20159;-66
2021/12/19 01:34:06;;;;;;;7.43;2.45;;;9.60;88.60;;;;;;5015124;28;20048;-66
2021/12/19 01:36:32;;;;;;;6.80;1.90;;;9.50;88.60;;;;;;5012343;28;20033;-66
2021/12/19 01:38:58;;;;;;;6.57;1.80;;;9.50;88.40;;;;;;5009714;28;20030;-66
2021/12/19 01:41:24;;;;;;;7.07;2.28;;;9.50;88.10;;;;;;5004834;28;20030;-67
2021/12/19 01:43:49;;;;;;;4.10;1.48;;;9.50;88.40;;;;;;5004969;28;20026;-66
2021/12/19 01:46:15;;;;;;;5.05;1.80;;;9.40;88.10;;;;;;5019973;28;20037;-66
2021/12/19 01:48:41;;;;;;;8.10;2.10;;;9.50;88.20;;;;;;5009150;28;20060;-66
2021/12/19 01:51:07;;;;;;;8.10;1.95;;;9.40;88.50;;;;;;5012408;28;20128;-66
2021/12/19 01:53:33;;;;;;;3.78;1.85;;;9.50;88.40;;;;;;5007456;28;20037;-66
2021/12/19 01:55:59;;;;;;;6.75;1.88;;;9.50;88.30;;;;;;5017679;28;20178;-66
2021/12/19 01:58:25;;;;;;;8.23;2.20;;;9.50;88.30;;;;;;5006640;28;20135;-66
2021/12/19 02:00:54;;;;;;;4.10;2.00;;;9.50;88.20;;;;;;5009967;28;20033;-66
2021/12/19 02:03:21;;;;;;;8.95;1.95;;;9.50;88.40;;;;;;5018636;28;20354;-66
2021/12/19 02:05:48;;;;;;;4.63;2.00;;;9.40;88.80;;;;;;5010100;28;20057;-66
2021/12/19 02:08:14;;;;;;;9.45;2.22;;;9.50;88.60;;;;;;5004833;28;20033;-66
2021/12/19 02:10:41;;;;;;;7.00;2.42;;;9.50;88.40;;;;;;5005355;28;20525;-66
2021/12/19 02:13:08;;;;;;;10.88;2.63;;;9.50;88.20;;;;;;5015954;28;20580;-66
2021/12/19 02:15:35;;;;;;;7.95;2.10;;;9.40;88.40;;;;;;5009114;28;20041;-66
2021/12/19 02:18:13;;;;;;;6.75;2.20;;;9.40;88.90;;;;;;5011718;28;20076;-68
2021/12/19 02:20:52;;;;;;;3.50;2.00;;;9.40;88.70;;;;;;5004421;28;20111;-67
2021/12/19 02:23:20;;;;;;;6.82;2.80;;;9.40;88.40;;;;;;5006165;28;20111;-67
2021/12/19 02:25:47;;;;;;;5.35;2.20;;;9.40;88.40;;;;;;5001371;28;20025;-67
2021/12/19 02:28:13;;;;;;;6.25;2.97;;;9.40;88.70;;;;;;5018574;28;20112;-67
2021/12/19 02:30:39;;;;;;;5.03;2.03;;;9.40;88.30;;;;;;5013071;28;20044;-67
2021/12/19 02:33:15;;;;;;;6.43;2.10;;;9.40;88.00;;;;;;5009865;28;20038;-67
2021/12/19 02:35:48;;;;;;;8.70;1.92;;;9.40;88.20;;;;;;5004729;28;20045;-67
2021/12/19 02:38:36;;;;;;;5.57;1.60;;;9.40;88.40;;;;;;5005770;28;20034;-67
2021/12/19 02:49:22;;;;;;;3.90;2.22;;;9.40;88.10;;;;;;5005627;28;20151;-67
2021/12/19 02:51:48;;;;;;;2.83;1.38;;;9.40;88.30;;;;;;4988302;28;20034;-67
2021/12/19 02:54:14;;;;;;;6.53;1.65;;;9.40;88.70;;;;;;5002892;28;20662;-67
2021/12/19 02:56:39;;;;;;;4.88;1.73;;;9.40;88.30;;;;;;5013775;28;20128;-67
2021/12/19 02:59:05;;;;;;;8.73;2.80;;;9.40;88.40;;;;;;5011413;28;20034;-67
2021/12/19 03:01:31;;;;;;;5.05;2.10;;;9.30;88.80;;;;;;5004577;28;20045;-67
2021/12/19 03:03:57;;;;;;;7.22;2.20;;;9.30;88.10;;;;;;5009629;28;20034;-67
2021/12/19 03:06:23;;;;;;;6.93;2.13;;;9.20;88.50;;;;;;5000865;28;20175;-67
2021/12/19 03:08:51;;;;;;;6.80;2.28;;;9.20;89.20;;;;;;5004081;28;20048;-66
2021/12/19 03:19:31;;;;;;;4.32;2.08;;;9.20;89.20;;;;;;5008595;28;20057;-66
2021/12/19 03:21:57;;;;;;;4.72;2.15;;;9.30;88.80;;;;;;5005016;28;20636;-66
2021/12/19 03:24:22;;;;;;;7.28;2.78;;;9.30;88.50;;;;;;5016042;28;20560;-66
2021/12/19 03:26:48;;;;;;;4.18;2.28;;;9.30;88.60;;;;;;5014120;28;20064;-66
2021/12/19 03:29:14;;;;;;;7.03;2.03;;;9.30;88.70;;;;;;5009408;28;20629;-67
2021/12/19 03:31:40;;;;;;;4.38;2.22;;;9.30;88.60;;;;;;5010208;28;20060;-66
2021/12/19 03:34:05;;;;;;;2.97;2.10;;;9.30;89.10;;;;;;5001281;28;20088;-67
2021/12/19 03:36:31;;;;;;;5.28;2.55;;;9.30;88.90;;;;;;5013899;28;20041;-67
2021/12/19 03:38:59;;;;;;;5.00;2.50;;;9.30;88.40;;;;;;5014612;28;20042;-66
2021/12/19 03:41:33;;;;;;;6.93;2.65;;;9.20;88.70;;;;;;5010424;28;20033;-66
2021/12/19 03:44:01;;;;;;;8.27;2.33;;;9.20;88.90;;;;;;5014311;28;20049;-66
2021/12/19 03:46:27;;;;;;;5.25;2.40;;;9.20;89.10;;;;;;5007302;28;20636;-66
2021/12/19 03:48:52;;;;;;;4.50;2.17;;;9.20;88.80;;;;;;5003589;28;20033;-66
2021/12/19 03:51:18;;;;;;;3.13;1.88;;;9.20;88.90;;;;;;5013052;28;20044;-66
2021/12/19 03:53:44;;;;;;;2.80;1.95;;;9.20;88.70;;;;;;5013109;28;20044;-67
2021/12/19 03:56:09;;;;;;;3.58;2.15;;;9.20;88.70;;;;;;5012684;28;20543;-66
2021/12/19 03:58:35;;;;;;;5.47;2.38;;;9.20;89.00;;;;;;5012146;28;20030;-66
2021/12/19 04:01:05;;;;;;;5.47;2.40;;;9.20;88.60;;;;;;5007164;28;20033;-66
2021/12/19 04:03:31;;;;;;;4.43;2.10;;;9.30;88.70;;;;;;5005814;28;20077;-66
2021/12/19 04:05:56;;;;;;;4.30;1.83;;;9.20;88.90;;;;;;5017689;28;20060;-66
2021/12/19 04:08:22;;;;;;;3.72;2.25;;;9.20;89.10;;;;;;5013914;28;20767;-66
2021/12/19 04:10:51;;;;;;;4.05;2.05;;;9.30;88.40;;;;;;5016683;28;20037;-66
2021/12/19 04:13:18;;;;;;;4.05;1.90;;;9.20;88.50;;;;;;5010539;28;20033;-66
2021/12/19 04:15:44;;;;;;;3.15;1.95;;;9.20;88.60;;;;;;5008916;28;20061;-66
2021/12/19 04:18:10;;;;;;;3.03;1.67;;;9.20;88.40;;;;;;5014899;28;20052;-68
2021/12/19 04:20:36;;;;;;;4.93;1.95;;;9.30;88.40;;;;;;5014744;28;20025;-66
2021/12/19 04:23:03;;;;;;;4.32;1.90;;;9.20;88.40;;;;;;5015359;28;20786;-66
2021/12/19 04:25:29;;;;;;;3.90;1.90;;;9.20;88.10;;;;;;5013486;28;20065;-68
2021/12/19 04:27:55;;;;;;;3.92;1.58;;;9.20;88.30;;;;;;5006745;28;20065;-68
2021/12/19 04:30:23;;;;;;;3.88;1.75;;;9.10;88.10;;;;;;5013510;28;20041;-67
2021/12/19 04:32:59;;;;;;;3.47;1.65;;;9.10;88.60;;;;;;5008599;28;20080;-67
2021/12/19 04:35:32;;;;;;;5.22;1.88;;;9.20;88.40;;;;;;5011140;28;20037;-67
2021/12/19 04:56:38;;;;;;;5.45;1.92;;;9.10;89.10;;;;;;5014824;28;20069;-67
2021/12/19 05:05:04;;;;;;;5.95;2.75;;;9.10;89.70;;;;;;5016228;28;20107;-67
2021/12/19 05:15:37;;;;;;;5.57;2.95;;;9.10;89.20;;;;;;5012855;28;20025;-67
2021/12/19 05:18:07;;;;;;;6.45;2.72;;;9.10;89.50;;;;;;5014990;28;20049;-67
2021/12/19 05:20:34;;;;;;;7.70;2.70;;;9.10;89.70;;;;;;5010545;28;20049;-67
2021/12/19 05:25:48;;;;;;;5.43;1.98;;;9.10;89.90;;;;;;5014685;28;20099;-67
2021/12/19 05:28:14;;;;;;;5.60;2.30;;;9.20;89.80;;;;;;5006065;28;20477;-67
2021/12/19 05:30:40;;;;;;;9.48;2.58;;;9.20;89.90;;;;;;5017573;28;20143;-67
2021/12/19 05:33:07;;;;;;;10.60;3.15;;;9.20;89.60;;;;;;5013126;28;20084;-67
2021/12/19 05:46:32;;;;;;;5.40;2.90;;;9.30;89.20;;;;;;5009217;28;20664;-66
2021/12/19 05:48:57;;;;;;;9.65;3.28;;;9.20;89.40;;;;;;5010768;28;20042;-67
2021/12/19 05:51:23;;;;;;;8.00;2.97;;;9.20;89.70;;;;;;5010464;28;20247;-67
2021/12/19 05:53:49;;;;;;;8.68;3.25;;;9.20;90.00;;;;;;5002548;28;20620;-67
2021/12/19 05:56:15;;;;;;;5.43;3.10;;;9.10;90.10;;;;;;5008625;28;20147;-66
2021/12/19 05:58:41;;;;;;;8.32;3.10;;;9.10;90.20;;;;;;5013954;28;20041;-67
2021/12/19 06:01:06;;;;;;;17.73;3.38;;;9.10;90.30;;;;;;5010400;28;20030;-67
2021/12/19 06:03:32;;;;;;;10.10;3.50;;;9.10;90.10;;;;;;5008436;28;20137;-67
2021/12/19 06:05:58;;;;;;;7.88;3.88;;;9.10;90.30;;;;;;5010527;28;20044;-66
2021/12/19 06:08:23;;;;;;;14.68;3.90;;;9.10;90.30;;;;;;5003045;28;20033;-66
2021/12/19 06:10:49;;;;;;;10.05;3.58;;;9.10;90.40;;;;;;5015813;28;20037;-67
2021/12/19 06:13:15;;;;;;;11.38;3.17;;;9.10;90.10;;;;;;5010943;28;20055;-67
2021/12/19 06:15:41;;;;;;;9.10;3.60;;;9.10;90.30;;;;;;5013064;28;20045;-67
2021/12/19 06:18:06;;;;;;;11.30;3.42;;;9.20;90.10;;;;;;5009184;28;20116;-67
2021/12/19 06:20:33;;;;;;;5.88;3.28;;;9.10;90.20;;;;;;5006990;28;20088;-67
2021/12/19 06:22:59;;;;;;;11.10;3.65;;;9.20;90.10;;;;;;5011112;28;20110;-67
2021/12/19 06:25:25;;;;;;;14.50;3.45;;;9.20;90.00;;;;;;5011069;28;20048;-67
2021/12/19 06:27:51;;;;;;;7.07;2.95;;;9.10;90.00;;;;;;5008997;28;20059;-67
2021/12/19 06:30:17;;;;;;;9.35;3.08;;;9.10;90.00;;;;;;5014385;28;20486;-67
2021/12/19 06:32:42;;;;;;;8.75;3.05;;;9.10;90.00;;;;;;5010737;28;20037;-67
2021/12/19 06:35:18;;;;;;;5.78;3.08;;;9.10;89.60;;;;;;5007193;28;20096;-67
2021/12/19 06:37:48;;;;;;;13.73;3.20;;;9.20;89.50;;;;;;5000731;28;20073;-67
2021/12/19 06:40:19;;;;;;;12.70;3.72;;;9.10;89.40;;;;;;4992775;28;20040;-67
2021/12/19 06:42:47;;;;;;;10.32;3.42;;;9.10;90.10;;;;;;5009044;28;20548;-67
2021/12/19 06:45:13;;;;;;;8.02;3.08;;;9.00;90.20;;;;;;5009481;28;20029;-67
2021/12/19 06:47:39;;;;;;;10.48;3.05;;;9.00;90.40;;;;;;5005235;28;20064;-67
2021/12/19 06:50:06;;;;;;;11.30;2.85;;;9.00;90.40;;;;;;5007184;28;20915;-67
2021/12/19 06:52:32;;;;;;;8.40;2.85;;;9.00;90.30;;;;;;5007494;28;20029;-67
2021/12/19 06:54:58;;;;;;;10.57;3.13;;;9.00;90.10;;;;;;5008059;28;20808;-67
2021/12/19 06:57:23;;;;;;;12.30;2.80;;;9.00;90.20;;;;;;5009604;28;20044;-67
2021/12/19 06:59:49;;;;;;;8.38;2.95;;;9.00;90.00;;;;;;5010964;28;20388;-67
2021/12/19 07:02:16;;;;;;;7.35;2.53;;;9.00;89.90;;;;;;5007103;28;20038;-67
2021/12/19 07:04:43;;;;;;;5.93;2.65;;;9.00;90.00;;;;;;5002196;28;20120;-67
2021/12/19 07:07:09;;;;;;;9.32;3.58;;;9.00;90.20;;;;;;5008013;28;20397;-67
2021/12/19 07:09:35;;;;;;;8.82;2.80;;;9.10;89.40;;;;;;5013274;28;20030;-67
2021/12/19 07:12:02;;;;;;;7.00;2.70;;;9.10;89.30;;;;;;5008482;28;20791;-68
2021/12/19 07:14:28;;;;;;;8.70;2.72;;;9.10;89.60;;;;;;5013721;28;20634;-67
2021/12/19 07:16:54;;;;;;;10.65;3.35;;;9.10;90.00;;;;;;5003048;28;20029;-67
2021/12/19 07:19:20;;;;;;;7.55;2.65;;;9.10;90.20;;;;;;5012412;28;20116;-67
2021/12/19 07:21:46;;;;;;;7.65;2.70;;;9.00;90.20;;;;;;5008494;28;20029;-67
2021/12/19 07:24:11;;;;;;;8.55;2.30;;;9.00;90.40;;;;;;4995793;28;20075;-67
2021/12/19 07:26:37;;;;;;;10.57;2.50;;;9.00;90.60;;;;;;5007395;28;20039;-67
2021/12/19 07:29:03;;;;;;;6.45;2.40;;;8.90;90.80;;;;;;5013927;28;20030;-67
2021/12/19 07:31:30;;;;;;;6.65;1.88;;;9.00;90.60;;;;;;5007729;28;20204;-67
2021/12/19 07:33:57;;;;;;;6.13;1.60;;;9.00;89.50;;;;;;5006774;28;20555;-67
2021/12/19 07:36:25;;;;;;;3.70;1.50;;;8.90;89.30;;;;;;5008080;28;20038;-68
2021/12/19 07:39:06;;;;;;;5.20;1.52;;;8.90;89.40;;;;;;5008922;28;20501;-67
2021/12/19 07:41:31;;;;;;;3.00;1.25;;;8.90;88.90;;;;;;5012634;28;20037;-67
2021/12/19 07:43:57;;;;;;;3.65;1.10;;;9.00;89.00;;;;;;5004822;28;20038;-67
2021/12/19 07:46:23;;;;;;;6.10;2.05;;;9.00;89.10;;;;;;5010476;28;20129;-67
2021/12/19 07:48:49;;;;;;;4.05;1.50;;;9.00;89.10;;;;;;4999717;28;20654;-67
2021/12/19 07:51:14;;;;;;;6.07;1.70;;;9.00;88.70;;;;;;5007131;28;20108;-67
2021/12/19 07:53:40;;;;;;;5.13;1.35;;;9.10;87.70;;;;;;5011885;28;20065;-67
2021/12/19 07:56:06;;;;;;;4.30;1.42;;;9.10;87.60;;;;;;5009638;28;20029;-67
2021/12/19 07:58:31;;;;;;;3.95;1.38;;;9.00;87.90;;;;;;5005626;28;20038;-67
2021/12/19 08:00:57;;;;;;;2.70;1.10;;;9.00;88.10;;;;;;5004421;28;20041;-67
2021/12/19 08:03:23;;;;;;;3.40;0.88;;;9.00;87.80;;;;;;5002083;28;20029;-67
2021/12/19 08:05:49;;;;;;;4.38;0.70;;;9.00;87.30;;;;;;5011044;28;20512;-67
2021/12/19 08:08:17;;;;;;;1.75;0.63;;;9.00;87.40;;;;;;5008797;28;20034;-67
2021/12/19 08:13:09;;;;;;;1.95;0.80;;;9.00;88.30;;;;;;5009497;28;20076;-66
2021/12/19 08:15:37;;;;;;;2.15;1.15;;;9.10;88.00;;;;;;5010996;28;20037;-67
2021/12/19 08:18:03;;;;;;;4.05;2.30;;;9.10;88.00;;;;;;5007605;28;20037;-67
2021/12/19 08:20:29;;;;;;;2.88;1.50;;;9.20;88.00;;;;;;5001962;28;20034;-67
2021/12/19 08:22:55;;;;;;;3.40;1.17;;;9.20;87.80;;;;;;5017592;28;20401;-67
2021/12/19 08:25:24;;;;;;;1.92;1.08;;;9.10;87.10;;;;;;5010769;28;20572;-67
2021/12/19 08:27:49;;;;;;;1.58;0.50;;;9.20;87.40;;;;;;5009979;28;20128;-70
2021/12/19 08:30:16;;;;;;;1.85;1.02;;;9.30;87.40;;;;;;5007146;28;20861;-68
2021/12/19 08:32:42;;;;;;;3.42;1.48;;;9.30;86.20;;;;;;5012180;28;20390;-67
2021/12/19 08:35:09;;;;;;;3.83;1.15;;;9.20;86.70;;;;;;5010186;28;20075;-67
2021/12/19 08:37:35;;;;;;;2.72;1.08;;;9.20;86.90;;;;;;5015833;28;20091;-68
2021/12/19 08:40:01;;;;;;;3.42;1.35;;;9.20;87.10;;;;;;5015972;28;20034;-68
2021/12/19 08:42:32;;;;;;;3.13;1.10;;;9.30;87.30;;;;;;5011137;28;20079;-68
2021/12/19 08:44:58;;;;;;;4.82;1.27;;;9.30;87.60;;;;;;5014621;28;20042;-67
2021/12/19 08:47:24;;;;;;;2.55;0.75;;;9.30;88.00;;;;;;5007002;28;20090;-68
2021/12/19 08:49:50;;;;;;;3.50;1.13;;;9.30;87.90;;;;;;5009470;28;20041;-68
2021/12/19 08:52:16;;;;;;;4.05;1.40;;;9.20;88.60;;;;;;5012188;28;20563;-68
2021/12/19 08:54:41;;;;;;;3.30;1.50;;;9.20;88.00;;;;;;5009696;28;20107;-68
2021/12/19 08:57:07;;;;;;;2.30;1.00;;;9.20;88.20;;;;;;5011901;28;20042;-67
2021/12/19 08:59:33;;;;;;;4.35;1.75;;;9.20;89.00;;;;;;5009435;28;20033;-67
2021/12/19 09:02:01;;;;;;;3.10;0.90;;;9.20;89.40;;;;;;5014058;28;20034;-68
2021/12/19 09:04:28;;;;;;;3.20;0.82;;;9.20;89.70;;;;;;5013752;28;20029;-67
2021/12/19 09:06:56;;;;;;;2.92;0.80;;;9.10;90.00;;;;;;4994898;28;20034;-66
2021/12/19 09:09:23;;;;;;;2.42;1.00;;;9.10;89.90;;;;;;5007957;28;20096;-69
2021/12/19 09:11:49;;;;;;;2.78;1.02;;;9.00;90.30;;;;;;5009520;28;20044;-67
2021/12/19 09:14:15;;;;;;;1.98;1.20;;;9.00;90.20;;;;;;5011604;28;20607;-67
2021/12/19 09:16:41;;;;;;;2.80;1.23;;;9.00;90.30;;;;;;5012955;28;20056;-67
2021/12/19 09:19:07;;;;;;;1.58;1.15;;;9.10;90.30;;;;;;5006096;28;20037;-67
2021/12/19 09:21:33;;;;;;;1.50;1.02;;;9.00;90.20;;;;;;5012862;28;20030;-68
2021/12/19 09:23:58;;;;;;;1.27;1.05;;;9.00;90.40;;;;;;5011450;28;20120;-67
2021/12/19 09:26:24;;;;;;;6.72;1.38;;;9.00;90.50;;;;;;5007796;28;20030;-67
2021/12/19 09:28:50;;;;;;;2.22;0.93;;;9.00;90.40;;;;;;5011348;28;20088;-67
2021/12/19 09:31:15;;;;;;;1.92;1.10;;;9.00;90.50;;;;;;5013197;28;20033;-67
2021/12/19 09:33:41;;;;;;;2.47;1.23;;;9.00;90.50;;;;;;5010717;28;20033;-67
2021/12/19 09:36:07;;;;;;;3.58;1.00;;;9.00;90.60;;;;;;5006201;28;20530;-67
2021/12/19 09:38:34;;;;;;;3.10;0.88;;;8.90;90.50;;;;;;5009107;28;20037;-69
2021/12/19 09:41:11;;;;;;;3.20;1.00;;;8.90;90.80;;;;;;5007629;28;20563;-67
2021/12/19 09:43:41;;;;;;;3.03;0.90;;;8.90;91.10;;;;;;5007256;28;20045;-67
2021/12/19 09:46:19;;;;;;;3.80;1.40;;;9.00;91.00;;;;;;5013208;28;20143;-68
2021/12/19 09:48:48;;;;;;;2.17;1.63;;;9.10;90.90;;;;;;5006909;28;20154;-68
2021/12/19 09:51:16;;;;;;;3.30;1.23;;;9.10;90.70;;;;;;5012710;28;20104;-67
2021/12/19 09:53:42;;;;;;;5.00;1.48;;;9.10;90.70;;;;;;5010097;28;20057;-67
2021/12/19 09:56:07;;;;;;;4.68;1.23;;;9.20;90.60;;;;;;5012108;28;20064;-67
2021/12/19 09:58:34;;;;;;;4.90;1.48;;;9.10;90.10;;;;;;5007935;28;20417;-67
2021/12/19 10:01:02;;;;;;;3.22;1.20;;;9.00;90.50;;;;;;5009535;28;20034;-67
2021/12/19 10:03:27;;;;;;;3.20;1.20;;;9.10;90.30;;;;;;5010318;28;20777;-68
2021/12/19 10:06:11;;;;;;;3.35;1.40;;;9.10;90.50;;;;;;5005569;28;20029;-66
2021/12/19 10:08:37;;;;;;;6.75;1.48;;;9.20;90.30;;;;;;5010952;28;20033;-67
2021/12/19 10:11:10;;;;;;;5.32;1.88;;;9.20;90.40;;;;;;5009092;28;20502;-65
2021/12/19 10:13:37;;;;;;;3.70;1.60;;;9.20;90.10;;;;;;5005857;28;20033;-67
2021/12/19 10:16:30;;;;;;;4.10;1.52;;;9.20;90.20;;;;;;5014485;28;20135;-67
2021/12/19 10:18:59;;;;;;;4.18;1.75;;;9.20;90.40;;;;;;5009206;28;20041;-67
2021/12/19 10:21:27;;;;;;;6.00;2.20;;;9.20;90.20;;;;;;5008688;28;20125;-67
2021/12/19 10:23:59;;;;;;;3.92;2.15;;;9.30;90.40;;;;;;5013824;28;20087;-67
2021/12/19 10:26:42;;;;;;;8.90;2.50;;;9.20;90.20;;;;;;5014952;28;20037;-67
2021/12/19 10:29:08;;;;;;;7.57;2.25;;;9.20;90.30;;;;;;5012623;28;20048;-67
2021/12/19 10:31:34;;;;;;;8.95;1.95;;;9.30;90.00;;;;;;5009040;28;20615;-67
2021/12/19 10:34:21;;;;;;;6.43;2.03;;;9.30;89.50;;;;;;5008586;28;20041;-67
2021/12/19 10:36:47;;;;;;;9.30;1.80;;;9.30;88.90;;;;;;5006214;28;20045;-67
2021/12/19 10:39:16;;;;;;;5.93;1.75;;;9.20;89.50;;;;;;5008680;28;20128;-67
2021/12/19 10:41:43;;;;;;;5.80;1.55;;;9.20;89.80;;;;;;5013921;28;20038;-67
2021/12/19 10:45:29;;;;;;;3.95;1.73;;;9.20;90.10;;;;;;5005029;28;20041;-67
2021/12/19 10:47:27;;;;;;;4.28;1.70;;;9.30;90.10;;;;;;5005240;28;20034;-67
2021/12/19 10:49:53;;;;;;;8.52;2.00;;;9.30;90.20;;;;;;5002413;28;20037;-67
2021/12/19 10:52:38;;;;;;;8.35;1.65;;;9.30;90.30;;;;;;5008354;28;20030;-67
2021/12/19 10:55:08;;;;;;;2.65;1.35;;;9.30;90.40;;;;;;5011376;28;20490;-67
2021/12/19 10:57:37;;;;;;;3.63;1.85;;;9.20;90.10;;;;;;5007651;28;20045;-68
2021/12/19 11:00:11;;;;;;;5.82;1.25;;;9.20;90.20;;;;;;5005105;28;20072;-67
2021/12/19 11:02:42;;;;;;;5.45;1.20;;;9.30;90.10;;;;;;5013680;28;20061;-67
2021/12/19 11:05:40;;;;;;;5.57;1.40;;;9.30;89.70;;;;;;5009910;28;20052;-67
2021/12/19 11:08:08;;;;;;;3.13;1.20;;;9.30;89.60;;;;;;5015838;28;20056;-67
2021/12/19 11:10:37;;;;;;;5.53;2.13;;;9.30;90.00;;;;;;5006193;28;20033;-67
2021/12/19 11:13:16;;;;;;;8.82;1.52;;;9.30;89.60;;;;;;5011393;28;20544;-67
2021/12/19 11:15:42;;;;;;;4.18;1.65;;;9.40;89.00;;;;;;5008540;28;20090;-67
2021/12/19 11:18:08;;;;;;;10.63;4.25;;;9.40;88.90;;;;;;5005336;28;20799;-68
2021/12/19 11:20:34;;;;;;;6.45;1.00;;;9.40;89.00;;;;;;5011337;28;20030;-67
2021/12/19 11:23:00;;;;;;;3.63;1.33;;;9.50;89.00;;;;;;5005824;28;20026;-67
2021/12/19 11:25:27;;;;;;;7.32;1.55;;;9.40;89.00;;;;;;5009969;28;20038;-67
2021/12/19 11:27:53;;;;;;;6.78;2.15;;;9.50;89.60;;;;;;5004875;28;20702;-67
2021/12/19 11:30:19;;;;;;;10.63;3.83;;;9.50;89.30;;;;;;5007532;28;20417;-66
2021/12/19 11:33:27;;;;;;;8.40;2.95;;;9.60;89.50;;;;;;5003455;28;20053;-67
2021/12/19 11:35:55;;;;;;;8.13;2.25;;;9.50;89.80;;;;;;5011334;28;20047;-67
2021/12/19 11:38:23;;;;;;;4.93;1.58;;;9.50;90.30;;;;;;5006301;28;20117;-67
2021/12/19 11:40:51;;;;;;;4.90;1.40;;;9.50;90.20;;;;;;5011329;28;20052;-66
2021/12/19 11:43:17;;;;;;;4.45;1.20;;;9.50;90.30;;;;;;5003838;28;20058;-67
2021/12/19 11:45:46;;;;;;;2.72;1.45;;;9.50;90.20;;;;;;5005901;28;20030;-67
2021/12/19 11:48:29;;;;;;;6.55;1.27;;;9.50;90.30;;;;;;5013040;28;20048;-66
2021/12/19 11:51:01;;;;;;;2.53;0.85;;;9.50;90.20;;;;;;5006454;28;20037;-66
2021/12/19 11:53:32;;;;;;;7.60;1.80;;;9.50;90.30;;;;;;5011667;28;20711;-67
2021/12/19 11:56:06;;;;;;;4.38;1.38;;;9.50;90.50;;;;;;4999276;28;20112;-66
2021/12/19 11:58:49;;;;;;;8.32;2.03;;;9.40;90.60;;;;;;5012260;28;20033;-66
2021/12/19 12:01:23;;;;;;;9.35;2.50;;;9.40;90.70;;;;;;5012416;28;20026;-67
2021/12/19 12:03:52;;;;;;;5.50;1.80;;;9.40;90.70;;;;;;5010822;28;20026;-67
2021/12/19 12:06:19;;;;;;;9.25;2.80;;;9.40;90.80;;;;;;5011533;28;20041;-67
2021/12/19 12:09:06;;;;;;;10.88;2.58;;;9.40;91.00;;;;;;5014932;28;20196;-65
2021/12/19 12:11:34;;;;;;;8.38;2.38;;;9.50;91.00;;;;;;5009977;28;20041;-65
2021/12/19 12:14:20;;;;;;;9.98;2.65;;;9.50;91.10;;;;;;5012087;28;20041;-65
2021/12/19 12:16:58;;;;;;;2.85;1.75;;;9.50;91.40;;;;;;5013132;28;20789;-64
2021/12/19 12:19:48;;;;;;;7.72;1.98;;;9.50;91.40;;;;;;4995307;28;20433;-65
2021/12/19 12:25:19;;;;;;;7.03;2.58;;;9.50;91.60;;;;;;5006955;28;20038;-65
2021/12/19 12:27:55;;;;;;;4.13;1.55;;;9.50;91.60;;;;;;5009536;28;20048;-65
2021/12/19 12:30:26;;;;;;;;;;;9.50;91.80;;;;;;5010017;28;20044;-65
2021/12/19 12:32:53;;;;;;;6.57;1.38;;;9.50;91.70;;;;;;5010115;28;19919;-65
2021/12/19 12:35:20;;;;;;;5.65;1.73;;;9.50;91.80;;;;;;5007844;28;20088;-65
2021/12/19 12:37:48;;;;;;;6.20;1.88;;;9.50;91.70;;;;;;5010826;28;20395;-65
2021/12/19 12:40:31;;;;;;;4.80;1.40;;;9.50;91.80;;;;;;5008699;28;20110;-65
2021/12/19 12:43:13;;;;;;;5.22;1.38;;;9.50;91.90;;;;;;5016793;28;20049;-65
2021/12/19 12:45:53;;;;;;;4.10;1.73;;;9.50;91.90;;;;;;5008871;28;20052;-65
2021/12/19 12:48:29;;;;;;;1.27;1.15;;;9.50;92.00;;;;;;5011547;28;20865;-65
2021/12/19 12:50:55;;;;;;;6.22;1.77;;;9.50;92.10;;;;;;5008502;28;20042;-65
2021/12/19 12:53:35;;;;;;;5.65;2.00;;;9.50;92.00;;;;;;5000022;28;20025;-65
2021/12/19 12:56:15;;;;;;;8.13;1.83;;;9.60;91.90;;;;;;5008402;28;20030;-65
2021/12/19 12:58:47;;;;;;;7.30;2.70;;;9.50;91.90;;;;;;5007124;28;20511;-64
2021/12/19 13:01:19;;;;;;;6.53;1.77;;;9.50;92.00;;;;;;5013666;28;20112;-65
2021/12/19 13:04:05;;;;;;;6.03;2.30;;;9.50;92.00;;;;;;5009689;28;20084;-64
2021/12/19 13:06:39;;;;;;;6.97;1.77;;;9.50;92.20;;;;;;5011109;28;20029;-65
2021/12/19 13:09:28;;;;;;;7.13;1.90;;;9.50;92.10;;;;;;5016492;28;20472;-66
2021/12/19 13:12:12;;;;;;;4.55;1.58;;;9.50;92.20;;;;;;5009319;28;20034;-65
2021/12/19 13:14:41;;;;;;;7.18;2.35;;;9.50;92.20;;;;;;5010119;28;20733;-65
2021/12/19 13:17:10;;;;;;;4.20;1.73;;;9.40;92.40;;;;;;5013933;28;20061;-65
2021/12/19 13:19:51;;;;;;;5.43;1.60;;;9.40;92.40;;;;;;5005497;28;20075;-64
2021/12/19 13:22:23;;;;;;;5.18;1.50;;;9.40;92.50;;;;;;5008364;28;20462;-64
2021/12/19 13:24:50;;;;;;;7.30;1.40;;;9.50;92.40;;;;;;4997736;28;20033;-66
2021/12/19 13:27:25;;;;;;;7.20;1.60;;;9.40;92.20;;;;;;5009501;28;20057;-63
2021/12/19 13:30:12;;;;;;;7.30;2.10;;;9.40;92.20;;;;;;5009462;28;20042;-64
2021/12/19 13:32:52;;;;;;;4.95;1.60;;;9.30;92.40;;;;;;5005876;28;20070;-67
2021/12/19 13:35:30;;;;;;;5.55;1.73;;;9.30;92.80;;;;;;5005897;28;20092;-66
2021/12/19 13:38:02;;;;;;;5.53;1.58;;;9.30;92.70;;;;;;5009720;28;20041;-65
2021/12/19 13:40:30;;;;;;;8.95;1.90;;;9.30;92.70;;;;;;5015712;28;20060;-66
2021/12/19 13:42:59;;;;;;;7.18;1.83;;;9.40;92.50;;;;;;5011457;28;20034;-66
2021/12/19 13:45:48;;;;;;;4.30;1.63;;;9.30;92.50;;;;;;5010354;28;20054;-64
2021/12/19 13:48:26;;;;;;;4.65;1.48;;;9.30;92.80;;;;;;5009207;28;20049;-64
2021/12/19 13:51:17;;;;;;;5.80;1.63;;;9.20;92.80;;;;;;5004225;28;20054;-64
2021/12/19 13:53:48;;;;;;;6.22;1.77;;;9.20;92.80;;;;;;5010611;28;20049;-65
2021/12/19 13:56:28;;;;;;;6.80;1.88;;;9.20;93.00;;;;;;5010722;28;20754;-65
2021/12/19 13:59:00;;;;;;;3.05;1.55;;;9.20;93.00;;;;;;5004443;28;20636;-65
2021/12/19 14:01:29;;;;;;;8.40;1.65;;;9.20;93.00;;;;;;5010536;28;20091;-64
2021/12/19 14:03:57;;;;;;;6.25;1.70;;;9.30;93.10;;;;;;5008229;28;20489;-65
2021/12/19 14:06:30;;;;;;;3.75;1.15;;;9.30;93.00;;;;;;5004172;28;20121;-65
2021/12/19 14:09:16;;;;;;;7.03;1.67;;;9.20;92.90;;;;;;5010562;28;20044;-66
2021/12/19 14:11:45;;;;;;;3.70;1.30;;;9.20;93.00;;;;;;5008436;28;20048;-66
2021/12/19 14:14:31;;;;;;;6.75;2.40;;;9.20;93.20;;;;;;5014247;28;20067;-66
2021/12/19 14:16:58;;;;;;;;;;;9.20;93.00;;;;;;5008725;28;20049;-68
2021/12/19 14:19:26;;;;;;;;;;;9.20;93.00;;;;;;5011297;28;20599;-65
2021/12/19 14:22:13;;;;;;;5.30;1.20;;;9.20;93.00;;;;;;5013374;28;19920;-65
2021/12/19 14:24:59;;;;;;;6.80;1.45;;;9.20;92.90;;;;;;5010414;28;20160;-64